Time;durP1;ratioP1;P1;durP2;ratioP2;P2;SDS_P1;SDS_P2;PMS_P1;PMS_P2;Temp;Humidity;BMP_temperature;BMP_pressure;BME280_temperature;BME280_humidity;BME280_pressure;Samples;Min_cycle;Max_cycle;Signal;HPM_P1;HPM_P2
2023/06/22 00:00:58;;;;;;;8.02;5.22;;;21.70;99.50;;;;;;4989234;28;20104;-66
2023/06/22 00:03:25;;;;;;;7.93;5.35;;;21.70;99.70;;;;;;4995796;28;20030;-67
2023/06/22 00:05:51;;;;;;;8.82;5.00;;;21.70;99.60;;;;;;4985978;28;20045;-67
2023/06/22 00:08:18;;;;;;;7.18;4.90;;;21.60;99.50;;;;;;5000961;28;20030;-67
2023/06/22 00:10:44;;;;;;;13.45;4.60;;;21.70;99.70;;;;;;4990524;28;20072;-66
2023/06/22 00:13:10;;;;;;;7.93;4.85;;;21.60;99.90;;;;;;4994530;28;20022;-67
2023/06/22 00:15:38;;;;;;;9.05;4.55;;;21.60;99.90;;;;;;4995608;28;20109;-67
2023/06/22 00:18:08;;;;;;;8.85;5.40;;;21.60;99.90;;;;;;4995858;28;20037;-67
2023/06/22 00:20:36;;;;;;;7.20;4.82;;;21.50;99.90;;;;;;4995052;28;20558;-67
2023/06/22 00:23:08;;;;;;;7.40;5.38;;;21.50;99.90;;;;;;4994634;28;20415;-66
2023/06/22 00:25:40;;;;;;;6.18;5.25;;;21.40;99.90;;;;;;4995186;28;20562;-67
2023/06/22 00:28:07;;;;;;;6.65;5.13;;;21.50;99.90;;;;;;4988594;28;20569;-67
2023/06/22 00:30:33;;;;;;;7.13;4.85;;;21.40;99.90;;;;;;4994848;28;20645;-67
2023/06/22 00:32:59;;;;;;;7.88;4.75;;;21.40;99.90;;;;;;4994613;28;20027;-67
2023/06/22 00:35:29;;;;;;;6.68;5.20;;;21.40;99.90;;;;;;4985144;28;20037;-66
2023/06/22 00:38:03;;;;;;;8.35;5.55;;;21.40;99.90;;;;;;5023690;28;20034;-66
2023/06/22 00:40:30;;;;;;;7.15;5.05;;;21.40;99.90;;;;;;4997404;28;20027;-67
2023/06/22 00:42:56;;;;;;;8.68;5.78;;;21.40;99.90;;;;;;5004349;28;20057;-66
2023/06/22 00:45:23;;;;;;;7.90;4.88;;;21.40;99.90;;;;;;4994971;28;20065;-67
2023/06/22 00:47:50;;;;;;;5.60;4.85;;;21.40;99.90;;;;;;4996968;28;20052;-67
2023/06/22 00:50:22;;;;;;;6.97;5.10;;;21.40;99.90;;;;;;4974747;28;20499;-67
2023/06/22 00:52:51;;;;;;;6.55;4.45;;;21.30;99.90;;;;;;4991236;28;20045;-67
2023/06/22 00:55:18;;;;;;;6.80;5.18;;;21.40;99.90;;;;;;4992000;28;20037;-67
2023/06/22 00:57:46;;;;;;;7.00;5.60;;;21.40;99.90;;;;;;4990508;28;20041;-67
2023/06/22 01:00:18;;;;;;;6.68;4.97;;;21.40;99.90;;;;;;5020888;28;20030;-67
2023/06/22 01:02:47;;;;;;;5.95;4.90;;;21.40;99.90;;;;;;4994646;28;20123;-66
2023/06/22 01:05:14;;;;;;;7.35;4.88;;;21.40;99.90;;;;;;4993832;28;20049;-67
2023/06/22 01:07:49;;;;;;;7.75;5.15;;;21.40;99.90;;;;;;4992484;28;20081;-67
2023/06/22 01:10:22;;;;;;;6.25;5.13;;;21.40;99.90;;;;;;4987601;28;20022;-67
2023/06/22 01:12:55;;;;;;;9.90;4.65;;;21.40;99.90;;;;;;4993022;28;20030;-67
2023/06/22 01:15:31;;;;;;;8.48;4.90;;;21.40;99.90;;;;;;4995531;28;20035;-66
2023/06/22 01:17:58;;;;;;;6.65;5.50;;;21.40;99.90;;;;;;4992956;28;20488;-67
2023/06/22 01:20:26;;;;;;;7.63;5.22;;;21.40;99.90;;;;;;4983908;28;20062;-67
2023/06/22 01:23:19;;;;;;;11.38;6.80;;;21.30;99.90;;;;;;4995169;28;20026;-67
2023/06/22 01:26:03;;;;;;;7.43;5.28;;;21.30;99.90;;;;;;4990869;28;20093;-67
2023/06/22 01:28:47;;;;;;;8.25;5.30;;;21.30;99.90;;;;;;4992586;28;20101;-67
2023/06/22 01:31:16;;;;;;;6.45;5.00;;;21.30;99.90;;;;;;4984003;28;20027;-67
2023/06/22 01:33:45;;;;;;;8.95;5.20;;;21.30;99.90;;;;;;4982787;28;20034;-67
2023/06/22 01:36:12;;;;;;;10.25;4.90;;;21.30;99.90;;;;;;4982665;28;20065;-67
2023/06/22 01:38:39;;;;;;;8.90;6.05;;;21.30;99.90;;;;;;4984316;28;20053;-66
2023/06/22 01:41:05;;;;;;;8.02;6.20;;;21.30;99.90;;;;;;4991409;28;20121;-66
2023/06/22 01:43:31;;;;;;;6.93;5.47;;;21.20;99.90;;;;;;4989015;28;20112;-67
2023/06/22 01:45:59;;;;;;;7.43;5.47;;;21.20;99.90;;;;;;4990670;28;20482;-67
2023/06/22 01:48:25;;;;;;;7.32;5.22;;;21.10;99.90;;;;;;4997288;28;20406;-66
2023/06/22 01:50:53;;;;;;;7.50;4.95;;;21.10;99.90;;;;;;4972369;28;20049;-67
2023/06/22 01:53:20;;;;;;;7.80;5.53;;;21.10;99.90;;;;;;4985928;28;20026;-67
2023/06/22 01:55:46;;;;;;;9.65;5.85;;;21.10;99.90;;;;;;4990260;28;20026;-67
2023/06/22 01:58:12;;;;;;;6.70;5.40;;;21.10;99.90;;;;;;4990541;28;20034;-67
2023/06/22 02:00:42;;;;;;;9.05;6.13;;;21.00;99.90;;;;;;4990992;28;20502;-67
2023/06/22 02:03:16;;;;;;;7.05;4.88;;;20.90;99.90;;;;;;4989704;28;20053;-67
2023/06/22 02:06:04;;;;;;;7.40;5.25;;;20.90;99.90;;;;;;4990807;28;20022;-67
2023/06/22 02:08:35;;;;;;;12.05;5.65;;;20.90;99.90;;;;;;4984827;28;21035;-67
2023/06/22 02:11:02;;;;;;;7.43;5.25;;;20.90;99.90;;;;;;4981964;28;20026;-67
2023/06/22 02:13:27;;;;;;;7.38;5.20;;;20.80;99.90;;;;;;4995794;28;20034;-67
2023/06/22 02:15:54;;;;;;;6.50;4.95;;;20.80;99.90;;;;;;4994191;28;20030;-66
2023/06/22 02:18:20;;;;;;;8.60;5.70;;;20.80;99.90;;;;;;4994668;28;20037;-67
2023/06/22 02:20:46;;;;;;;6.57;5.05;;;20.80;99.90;;;;;;4997815;28;20037;-67
2023/06/22 02:23:11;;;;;;;6.47;5.25;;;20.80;99.90;;;;;;4986811;28;20030;-68
2023/06/22 02:25:37;;;;;;;9.48;5.60;;;20.80;99.90;;;;;;4995969;28;20805;-67
2023/06/22 02:28:03;;;;;;;6.50;5.00;;;20.80;99.90;;;;;;4988900;28;20048;-66
2023/06/22 02:30:29;;;;;;;8.35;4.88;;;20.80;99.90;;;;;;4999231;28;20136;-67
2023/06/22 02:32:58;;;;;;;7.47;4.25;;;20.80;99.90;;;;;;5001464;28;20109;-66
2023/06/22 02:35:35;;;;;;;10.18;6.18;;;20.80;99.90;;;;;;4986357;28;20045;-67
2023/06/22 02:38:02;;;;;;;8.30;5.57;;;20.80;99.90;;;;;;4995100;28;20034;-66
2023/06/22 02:40:29;;;;;;;6.35;5.22;;;20.80;99.90;;;;;;4998723;28;20400;-67
2023/06/22 02:42:55;;;;;;;6.70;5.15;;;20.80;99.90;;;;;;5003806;28;20026;-67
2023/06/22 02:45:20;;;;;;;9.05;5.07;;;20.70;99.90;;;;;;4991128;28;20352;-66
2023/06/22 02:47:47;;;;;;;8.07;5.70;;;20.60;99.90;;;;;;4989518;28;20387;-66
2023/06/22 02:50:13;;;;;;;10.63;5.25;;;20.60;99.90;;;;;;4974914;28;20033;-67
2023/06/22 02:52:39;;;;;;;10.52;6.10;;;20.60;99.90;;;;;;5002130;28;20455;-67
2023/06/22 02:55:07;;;;;;;6.55;5.03;;;20.60;99.90;;;;;;4990071;28;20042;-67
2023/06/22 02:57:32;;;;;;;7.60;4.90;;;20.60;99.90;;;;;;4986020;28;20026;-67
2023/06/22 02:59:58;;;;;;;6.60;5.10;;;20.60;99.90;;;;;;4985819;28;20547;-67
2023/06/22 03:02:26;;;;;;;7.97;4.85;;;20.60;99.90;;;;;;5013658;28;20038;-66
2023/06/22 03:04:53;;;;;;;9.43;6.10;;;20.50;99.90;;;;;;4989860;28;20488;-67
2023/06/22 03:07:19;;;;;;;7.63;6.55;;;20.50;99.90;;;;;;5000023;28;20037;-67
2023/06/22 03:09:45;;;;;;;11.63;5.88;;;20.50;99.90;;;;;;4994832;28;20024;-67
2023/06/22 03:12:11;;;;;;;8.40;5.32;;;20.50;99.90;;;;;;4994180;28;20025;-66
2023/06/22 03:14:36;;;;;;;8.15;5.88;;;20.50;99.90;;;;;;4987710;28;20030;-67
2023/06/22 03:17:03;;;;;;;7.43;5.68;;;20.40;99.90;;;;;;4990590;28;20101;-67
2023/06/22 03:19:31;;;;;;;7.68;5.88;;;20.40;99.90;;;;;;4993330;28;20072;-67
2023/06/22 03:21:57;;;;;;;7.40;5.45;;;20.40;99.90;;;;;;4995725;28;20031;-67
2023/06/22 03:24:23;;;;;;;7.43;5.63;;;20.30;99.90;;;;;;4996194;28;20030;-67
2023/06/22 03:26:48;;;;;;;9.90;6.30;;;20.40;99.90;;;;;;4990244;28;20046;-66
2023/06/22 03:29:15;;;;;;;7.57;5.65;;;20.40;99.90;;;;;;4984597;28;20082;-67
2023/06/22 03:31:41;;;;;;;10.05;5.40;;;20.40;99.90;;;;;;4985942;28;20081;-67
2023/06/22 03:34:06;;;;;;;6.55;5.47;;;20.40;99.90;;;;;;4986198;28;20034;-67
2023/06/22 03:36:32;;;;;;;8.45;5.30;;;20.40;99.90;;;;;;4987487;28;20057;-68
2023/06/22 03:38:57;;;;;;;7.65;6.00;;;20.30;99.90;;;;;;4991152;28;20038;-67
2023/06/22 03:41:23;;;;;;;13.52;5.70;;;20.40;99.90;;;;;;4988475;28;20038;-67
2023/06/22 03:43:49;;;;;;;8.88;5.25;;;20.40;99.90;;;;;;4983139;28;20522;-67
2023/06/22 03:46:14;;;;;;;10.65;6.07;;;20.30;99.90;;;;;;4988504;28;20114;-67
2023/06/22 03:48:40;;;;;;;6.65;5.43;;;20.30;99.90;;;;;;4987493;28;20026;-67
2023/06/22 03:51:05;;;;;;;9.38;5.93;;;20.30;99.90;;;;;;4974723;28;20047;-67
2023/06/22 03:53:31;;;;;;;9.30;6.38;;;20.30;99.90;;;;;;4986007;28;20114;-67
2023/06/22 03:55:57;;;;;;;7.65;5.78;;;20.30;99.90;;;;;;4987429;28;20057;-67
2023/06/22 03:58:23;;;;;;;8.80;6.47;;;20.30;99.90;;;;;;4982684;28;20035;-67
2023/06/22 04:00:50;;;;;;;10.18;6.43;;;20.30;99.90;;;;;;4984045;28;20532;-67
2023/06/22 04:03:18;;;;;;;9.57;6.32;;;20.30;99.90;;;;;;4993143;28;20121;-67
2023/06/22 04:05:44;;;;;;;8.98;6.60;;;20.30;99.90;;;;;;4991187;28;20030;-67
2023/06/22 04:08:10;;;;;;;8.27;7.15;;;20.40;99.90;;;;;;4991418;28;20036;-64
2023/06/22 04:10:35;;;;;;;15.02;6.95;;;20.40;99.90;;;;;;4979455;28;20026;-67
2023/06/22 04:13:01;;;;;;;7.25;6.15;;;20.50;99.90;;;;;;4982524;28;20125;-67
2023/06/22 04:15:27;;;;;;;7.72;6.45;;;20.50;99.90;;;;;;4981185;28;20034;-67
2023/06/22 04:17:54;;;;;;;7.97;6.55;;;20.50;99.90;;;;;;4982244;28;20117;-67
2023/06/22 04:20:20;;;;;;;8.98;6.38;;;20.60;99.90;;;;;;4980029;28;20042;-67
2023/06/22 04:22:46;;;;;;;8.85;6.97;;;20.70;99.90;;;;;;4982660;28;20500;-67
2023/06/22 04:25:11;;;;;;;8.07;6.50;;;20.80;99.90;;;;;;4980609;28;20034;-67
2023/06/22 04:27:39;;;;;;;10.77;6.97;;;20.80;99.90;;;;;;4985636;28;20022;-67
2023/06/22 04:30:06;;;;;;;7.03;5.97;;;20.90;99.90;;;;;;4991306;28;20105;-67
2023/06/22 04:32:32;;;;;;;8.88;6.47;;;20.90;99.90;;;;;;4990757;28;20042;-67
2023/06/22 04:35:00;;;;;;;10.25;7.30;;;20.90;99.90;;;;;;4992861;28;20026;-67
2023/06/22 04:37:26;;;;;;;9.23;6.63;;;20.90;99.90;;;;;;4996261;28;20030;-68
2023/06/22 04:39:52;;;;;;;9.13;6.45;;;21.00;99.90;;;;;;4992482;28;20498;-67
2023/06/22 04:42:17;;;;;;;8.00;7.00;;;20.90;99.90;;;;;;4988216;28;20480;-67
2023/06/22 04:44:43;;;;;;;12.55;7.78;;;20.90;99.90;;;;;;4987114;28;20097;-67
2023/06/22 04:47:08;;;;;;;10.65;7.43;;;20.80;99.90;;;;;;5000173;28;20037;-67
2023/06/22 04:49:40;;;;;;;9.77;7.40;;;20.80;99.90;;;;;;4990084;28;20023;-67
2023/06/22 04:52:09;;;;;;;8.60;6.78;;;20.80;99.90;;;;;;4980491;28;20053;-67
2023/06/22 04:54:36;;;;;;;10.68;7.50;;;20.80;99.90;;;;;;4987335;28;20022;-67
2023/06/22 04:57:04;;;;;;;10.10;6.82;;;20.80;99.90;;;;;;4992801;28;20031;-68
2023/06/22 04:59:31;;;;;;;15.02;7.32;;;20.80;99.90;;;;;;4991684;28;20484;-68
2023/06/22 05:01:58;;;;;;;8.75;6.90;;;20.70;99.90;;;;;;4993210;28;20034;-67
2023/06/22 05:04:24;;;;;;;7.78;6.70;;;20.70;99.90;;;;;;4990497;28;20096;-70
2023/06/22 05:06:51;;;;;;;12.73;7.22;;;20.70;99.90;;;;;;4990073;28;20031;-68
2023/06/22 05:09:18;;;;;;;8.10;6.65;;;20.70;99.90;;;;;;4991012;28;20132;-68
2023/06/22 05:11:44;;;;;;;10.63;7.78;;;20.70;99.90;;;;;;4995547;28;20395;-69
2023/06/22 05:14:10;;;;;;;9.82;7.07;;;20.70;99.90;;;;;;4996441;28;20088;-66
2023/06/22 05:16:36;;;;;;;9.23;7.20;;;20.60;99.90;;;;;;4989718;28;20038;-67
2023/06/22 05:19:03;;;;;;;11.98;7.47;;;20.60;99.90;;;;;;4988560;28;20030;-68
2023/06/22 05:21:30;;;;;;;11.40;6.93;;;20.60;99.90;;;;;;4991639;28;20038;-68
2023/06/22 05:24:02;;;;;;;10.20;7.18;;;20.60;99.90;;;;;;4990896;28;20100;-67
2023/06/22 05:26:32;;;;;;;13.35;7.65;;;20.60;99.90;;;;;;4993367;28;20113;-67
2023/06/22 05:28:58;;;;;;;9.75;6.90;;;20.60;99.90;;;;;;5015145;28;20041;-67
2023/06/22 05:31:24;;;;;;;9.35;6.70;;;20.70;99.90;;;;;;4994742;28;20022;-67
2023/06/22 05:33:51;;;;;;;8.52;6.90;;;20.70;99.90;;;;;;4990412;28;20026;-68
2023/06/22 05:36:19;;;;;;;10.88;7.38;;;20.80;99.90;;;;;;4990111;28;20080;-67
2023/06/22 05:38:45;;;;;;;9.40;6.85;;;20.90;99.90;;;;;;4995823;28;20026;-68
2023/06/22 05:41:11;;;;;;;10.45;6.95;;;21.00;99.90;;;;;;4983545;28;20037;-68
2023/06/22 05:43:37;;;;;;;9.35;6.75;;;21.30;99.90;;;;;;4988989;28;20038;-67
2023/06/22 05:46:03;;;;;;;8.07;6.07;;;21.70;99.90;;;;;;4992126;28;20096;-68
2023/06/22 05:48:29;;;;;;;8.02;6.13;;;21.90;99.90;;;;;;4987417;28;20060;-67
2023/06/22 05:50:55;;;;;;;8.73;5.45;;;22.40;99.90;;;;;;4987232;28;20484;-68
2023/06/22 05:53:20;;;;;;;8.23;5.22;;;23.40;99.90;;;;;;4986734;28;20051;-68
2023/06/22 05:55:46;;;;;;;7.93;4.88;;;25.10;99.90;;;;;;4987263;28;20479;-68
2023/06/22 05:58:13;;;;;;;5.95;4.78;;;26.10;99.90;;;;;;4988916;28;20073;-66
2023/06/22 06:00:39;;;;;;;8.20;5.15;;;26.80;99.80;;;;;;4987148;28;20442;-68
2023/06/22 06:03:06;;;;;;;7.00;4.65;;;27.20;99.10;;;;;;4990619;28;20034;-68
2023/06/22 06:05:33;;;;;;;7.38;4.70;;;27.80;97.20;;;;;;4981989;28;20042;-68
2023/06/22 06:08:04;;;;;;;5.53;4.38;;;28.10;95.20;;;;;;4983367;28;20042;-68
2023/06/22 06:10:31;;;;;;;5.35;4.28;;;28.20;95.40;;;;;;4989653;28;20530;-68
2023/06/22 06:12:56;;;;;;;6.68;4.63;;;28.00;95.00;;;;;;4985475;28;20046;-68
2023/06/22 06:15:22;;;;;;;7.40;4.95;;;27.50;95.00;;;;;;4990020;28;20583;-68
2023/06/22 06:17:49;;;;;;;5.90;4.22;;;27.40;95.90;;;;;;4988851;28;20033;-67
2023/06/22 06:20:15;;;;;;;6.03;4.93;;;27.20;96.30;;;;;;4986950;28;20554;-68
2023/06/22 06:22:42;;;;;;;7.53;5.30;;;27.00;96.40;;;;;;4994910;28;20034;-67
2023/06/22 06:25:08;;;;;;;5.80;4.65;;;26.60;97.30;;;;;;4987250;28;20038;-67
2023/06/22 06:27:34;;;;;;;6.75;4.90;;;26.80;96.50;;;;;;4994175;28;20483;-68
2023/06/22 06:29:59;;;;;;;6.28;4.78;;;26.40;97.20;;;;;;4998627;28;20057;-67
2023/06/22 06:32:25;;;;;;;8.75;4.53;;;26.10;98.20;;;;;;4988913;28;20061;-67
2023/06/22 06:34:51;;;;;;;8.55;5.30;;;25.70;98.70;;;;;;4994222;28;20019;-67
2023/06/22 06:37:18;;;;;;;8.45;5.93;;;25.70;99.40;;;;;;4992063;28;20038;-67
2023/06/22 06:39:44;;;;;;;6.50;5.47;;;25.30;99.90;;;;;;4995505;28;20387;-68
2023/06/22 06:42:11;;;;;;;10.02;5.25;;;25.00;99.90;;;;;;4990087;28;20023;-67
2023/06/22 06:44:37;;;;;;;6.95;5.18;;;24.90;99.90;;;;;;4994417;28;20026;-68
2023/06/22 06:47:03;;;;;;;6.95;5.00;;;24.80;99.90;;;;;;4997417;28;20054;-67
2023/06/22 06:49:29;;;;;;;7.20;5.20;;;24.80;99.90;;;;;;4989097;28;20025;-67
2023/06/22 06:51:56;;;;;;;10.45;5.45;;;24.80;99.90;;;;;;4989746;28;20030;-67
2023/06/22 06:54:21;;;;;;;10.57;5.68;;;24.70;99.90;;;;;;4980916;28;20033;-67
2023/06/22 06:56:48;;;;;;;9.00;5.63;;;24.80;99.90;;;;;;4983356;28;20096;-68
2023/06/22 06:59:15;;;;;;;7.07;5.25;;;24.50;99.90;;;;;;4985580;28;20184;-68
2023/06/22 07:01:41;;;;;;;8.20;5.85;;;24.60;99.90;;;;;;5003927;28;20101;-68
2023/06/22 07:04:07;;;;;;;7.80;5.10;;;25.10;99.90;;;;;;4994471;28;20054;-67
2023/06/22 07:06:33;;;;;;;6.55;5.13;;;25.60;99.90;;;;;;4993294;28;20160;-68
2023/06/22 07:08:59;;;;;;;6.82;5.00;;;25.80;99.90;;;;;;4985421;28;20011;-68
2023/06/22 07:11:25;;;;;;;7.53;5.80;;;26.00;99.90;;;;;;4983388;28;20022;-68
2023/06/22 07:13:51;;;;;;;7.88;5.63;;;26.70;99.90;;;;;;4982493;28;20048;-67
2023/06/22 07:16:16;;;;;;;8.75;4.65;;;27.40;98.90;;;;;;4986572;28;20080;-67
2023/06/22 07:18:42;;;;;;;10.93;5.80;;;28.20;96.30;;;;;;4993180;28;20440;-67
2023/06/22 07:21:07;;;;;;;5.43;4.18;;;28.50;95.30;;;;;;4990682;28;20065;-68
2023/06/22 07:23:34;;;;;;;7.47;5.47;;;28.50;95.70;;;;;;4985789;28;20022;-68
2023/06/22 07:26:03;;;;;;;5.63;4.20;;;29.50;94.60;;;;;;4985868;28;20030;-67
2023/06/22 07:28:31;;;;;;;5.72;4.55;;;31.10;91.90;;;;;;4983660;28;20037;-65
2023/06/22 07:30:57;;;;;;;5.55;4.85;;;31.70;88.80;;;;;;4984633;28;20042;-68
2023/06/22 07:33:22;;;;;;;6.28;5.25;;;30.90;88.70;;;;;;4993839;28;20105;-68
2023/06/22 07:35:48;;;;;;;5.75;4.70;;;29.80;90.30;;;;;;4992622;28;20105;-68
2023/06/22 07:38:15;;;;;;;5.80;5.20;;;29.00;91.80;;;;;;5013240;28;20038;-66
2023/06/22 07:40:41;;;;;;;7.85;5.03;;;28.70;92.60;;;;;;4991763;28;20022;-67
2023/06/22 07:43:07;;;;;;;7.53;5.18;;;28.20;93.10;;;;;;4994996;28;20045;-68
2023/06/22 07:45:34;;;;;;;7.05;5.38;;;28.10;94.00;;;;;;4991990;28;20669;-67
2023/06/22 07:48:00;;;;;;;10.13;4.95;;;27.90;94.10;;;;;;4987978;28;20026;-67
2023/06/22 07:50:26;;;;;;;6.88;5.20;;;28.10;94.70;;;;;;4987786;28;20122;-67
2023/06/22 07:52:52;;;;;;;5.85;4.63;;;28.40;94.10;;;;;;4986643;28;20109;-68
2023/06/22 07:55:18;;;;;;;8.00;4.78;;;29.00;93.20;;;;;;4991309;28;20035;-67
2023/06/22 07:57:43;;;;;;;7.38;5.15;;;29.10;92.90;;;;;;4986663;28;20195;-68
2023/06/22 08:00:15;;;;;;;8.02;5.05;;;28.80;93.30;;;;;;4987822;28;20488;-68
2023/06/22 08:02:42;;;;;;;5.63;4.60;;;29.30;93.50;;;;;;4989620;28;20025;-68
2023/06/22 08:05:11;;;;;;;8.50;5.13;;;29.80;92.70;;;;;;4988321;28;20033;-66
2023/06/22 08:07:37;;;;;;;6.28;5.38;;;30.80;91.10;;;;;;4987301;28;20081;-66
2023/06/22 08:10:04;;;;;;;6.88;5.10;;;32.80;87.20;;;;;;4993222;28;20022;-66
2023/06/22 08:12:29;;;;;;;6.65;5.05;;;34.00;84.20;;;;;;4985964;28;20387;-66
2023/06/22 08:14:56;;;;;;;6.03;5.03;;;33.50;81.60;;;;;;4996195;28;20018;-66
2023/06/22 08:17:26;;;;;;;6.35;5.15;;;34.00;81.90;;;;;;4989124;28;20022;-66
2023/06/22 08:19:51;;;;;;;6.47;4.65;;;34.50;80.60;;;;;;4993568;28;20026;-66
2023/06/22 08:22:18;;;;;;;5.75;4.97;;;36.50;77.30;;;;;;4989442;28;20029;-65
2023/06/22 08:24:44;;;;;;;7.57;5.28;;;36.50;76.90;;;;;;4985297;28;20030;-66
2023/06/22 08:27:15;;;;;;;4.93;4.43;;;35.60;74.80;;;;;;4990183;28;20349;-66
2023/06/22 08:29:45;;;;;;;4.55;4.05;;;35.20;76.50;;;;;;4994784;28;20061;-66
2023/06/22 08:32:11;;;;;;;5.55;3.95;;;35.90;75.40;;;;;;4990569;28;20057;-66
2023/06/22 08:34:40;;;;;;;5.88;4.60;;;36.50;74.70;;;;;;4993054;28;20030;-66
2023/06/22 08:37:06;;;;;;;6.43;4.80;;;36.30;74.00;;;;;;4991528;28;20478;-66
2023/06/22 08:39:32;;;;;;;5.47;4.28;;;36.20;74.80;;;;;;4990557;28;20023;-66
2023/06/22 08:41:58;;;;;;;6.22;4.22;;;35.70;73.70;;;;;;4992099;28;20074;-66
2023/06/22 08:44:23;;;;;;;5.05;4.55;;;36.40;73.20;;;;;;4989447;28;20646;-66
2023/06/22 08:46:49;;;;;;;5.30;3.85;;;35.70;74.10;;;;;;4990280;28;20035;-66
2023/06/22 08:49:15;;;;;;;6.00;4.60;;;36.00;74.20;;;;;;4993734;28;20061;-66
2023/06/22 08:51:40;;;;;;;5.85;4.90;;;36.30;73.40;;;;;;4993427;28;20022;-66
2023/06/22 08:54:06;;;;;;;5.57;4.32;;;36.30;73.50;;;;;;4973478;28;20095;-68
2023/06/22 08:56:31;;;;;;;6.20;4.10;;;35.80;73.00;;;;;;4988134;28;20034;-66
2023/06/22 08:58:57;;;;;;;7.13;4.35;;;35.00;74.60;;;;;;4989356;28;20037;-66
2023/06/22 09:01:23;;;;;;;5.53;4.35;;;34.30;76.00;;;;;;4989861;28;20068;-66
2023/06/22 09:03:54;;;;;;;7.97;4.50;;;34.20;76.90;;;;;;4990898;28;20538;-69
2023/06/22 09:06:21;;;;;;;6.75;4.40;;;33.30;77.80;;;;;;4998151;28;20053;-68
2023/06/22 09:08:47;;;;;;;7.47;3.97;;;33.00;79.40;;;;;;4991636;28;20408;-66
2023/06/22 09:11:13;;;;;;;5.72;4.00;;;32.00;79.50;;;;;;4994171;28;20109;-66
2023/06/22 09:13:38;;;;;;;6.82;4.90;;;32.00;80.40;;;;;;4986337;28;20109;-68
2023/06/22 09:16:04;;;;;;;7.95;4.95;;;31.40;80.30;;;;;;4992145;28;20108;-68
2023/06/22 09:18:30;;;;;;;7.10;4.72;;;30.80;83.20;;;;;;5000671;28;20149;-67
2023/06/22 09:20:55;;;;;;;5.47;4.85;;;30.50;84.90;;;;;;4996103;28;20537;-68
2023/06/22 09:23:21;;;;;;;5.80;4.43;;;30.70;84.30;;;;;;5001280;28;20117;-68
2023/06/22 09:25:47;;;;;;;6.35;4.57;;;30.50;85.10;;;;;;4995909;28;21188;-69
2023/06/22 09:28:14;;;;;;;6.95;5.38;;;30.30;85.10;;;;;;4992916;28;20033;-68
2023/06/22 09:30:39;;;;;;;6.75;4.53;;;30.40;85.50;;;;;;4990756;28;20026;-68
2023/06/22 09:33:05;;;;;;;5.57;4.70;;;30.70;85.00;;;;;;4995579;28;20088;-68
2023/06/22 09:35:30;;;;;;;8.82;4.53;;;30.80;85.60;;;;;;4994751;28;20034;-68
2023/06/22 09:37:56;;;;;;;5.28;4.35;;;30.90;85.50;;;;;;5004935;28;20068;-69
2023/06/22 09:40:21;;;;;;;7.30;4.60;;;30.70;86.80;;;;;;4989115;28;20037;-69
2023/06/22 09:42:47;;;;;;;7.13;4.57;;;31.00;85.70;;;;;;4988525;28;20105;-68
2023/06/22 09:45:13;;;;;;;5.57;4.60;;;31.10;86.20;;;;;;4988620;28;20026;-68
2023/06/22 09:47:38;;;;;;;6.30;4.32;;;31.50;84.20;;;;;;4986179;28;20590;-67
2023/06/22 09:50:05;;;;;;;7.35;4.75;;;31.80;83.60;;;;;;4987770;28;20034;-68
2023/06/22 09:52:31;;;;;;;5.43;4.10;;;32.40;82.30;;;;;;4988151;28;20018;-66
2023/06/22 09:54:56;;;;;;;6.70;4.57;;;32.80;81.70;;;;;;4984939;28;20435;-66
2023/06/22 09:57:22;;;;;;;6.15;4.82;;;33.10;79.30;;;;;;4983181;28;20065;-68
2023/06/22 09:59:47;;;;;;;9.63;4.82;;;32.30;79.10;;;;;;4986390;28;20033;-68
2023/06/22 10:02:13;;;;;;;7.13;4.95;;;32.20;80.30;;;;;;4991526;28;20109;-68
2023/06/22 10:04:40;;;;;;;8.10;5.25;;;32.10;79.20;;;;;;4991999;28;20093;-68
2023/06/22 10:07:06;;;;;;;6.15;4.88;;;31.40;80.40;;;;;;4993916;28;20076;-68
2023/06/22 10:09:31;;;;;;;9.82;4.88;;;31.00;81.00;;;;;;4994584;28;20431;-68
2023/06/22 10:11:57;;;;;;;7.95;5.10;;;30.80;81.20;;;;;;4991611;28;20551;-69
2023/06/22 10:14:24;;;;;;;5.30;4.38;;;30.40;82.50;;;;;;4993495;28;20408;-68
2023/06/22 10:16:51;;;;;;;8.20;5.80;;;29.90;84.20;;;;;;4993180;28;20022;-68
2023/06/22 10:19:16;;;;;;;11.90;5.20;;;29.40;85.20;;;;;;4986496;28;20449;-68
2023/06/22 10:21:42;;;;;;;12.70;5.75;;;28.90;86.90;;;;;;4992407;28;20121;-67
2023/06/22 10:24:08;;;;;;;6.53;4.32;;;28.60;87.90;;;;;;4991762;28;20440;-68
2023/06/22 10:26:34;;;;;;;7.13;5.22;;;28.30;89.40;;;;;;4993572;28;20387;-68
2023/06/22 10:29:02;;;;;;;8.68;5.32;;;28.00;91.10;;;;;;4992379;28;20031;-68
2023/06/22 10:31:27;;;;;;;8.57;5.82;;;27.90;92.90;;;;;;4989120;28;20022;-69
2023/06/22 10:33:54;;;;;;;8.82;5.60;;;27.80;92.90;;;;;;4988688;28;20030;-68
2023/06/22 10:36:20;;;;;;;11.70;6.70;;;27.60;93.80;;;;;;4994564;28;20030;-68
2023/06/22 10:38:47;;;;;;;14.52;6.82;;;27.40;97.90;;;;;;5004246;28;20419;-69
2023/06/22 10:41:12;;;;;;;14.38;6.68;;;27.10;99.90;;;;;;4986829;28;20117;-69
2023/06/22 10:43:38;;;;;;;11.32;7.43;;;26.80;99.90;;;;;;4993864;28;20168;-68
2023/06/22 10:46:03;;;;;;;9.43;7.38;;;26.40;99.90;;;;;;4992917;28;20052;-68
2023/06/22 10:48:29;;;;;;;9.00;6.60;;;26.10;99.90;;;;;;4990199;28;20495;-68
2023/06/22 10:50:55;;;;;;;11.05;6.72;;;25.90;99.90;;;;;;4986006;28;20053;-68
2023/06/22 10:53:21;;;;;;;9.98;7.03;;;25.80;99.90;;;;;;4989137;28;20403;-68
2023/06/22 10:55:47;;;;;;;10.63;7.30;;;25.50;99.90;;;;;;4988972;28;20026;-68
2023/06/22 10:58:12;;;;;;;15.38;8.77;;;25.50;99.90;;;;;;4986345;28;20529;-68
2023/06/22 11:00:38;;;;;;;10.25;7.97;;;25.30;99.90;;;;;;4992597;28;20499;-68
2023/06/22 11:03:04;;;;;;;10.98;7.50;;;25.30;99.90;;;;;;4993763;28;20030;-69
2023/06/22 11:05:29;;;;;;;12.27;7.43;;;25.20;99.90;;;;;;4987902;28;20439;-68
2023/06/22 11:07:55;;;;;;;10.88;7.97;;;25.20;99.90;;;;;;4993469;28;20040;-68
2023/06/22 11:10:20;;;;;;;11.25;8.38;;;25.10;99.90;;;;;;4985417;28;20034;-68
2023/06/22 11:12:46;;;;;;;13.82;8.57;;;25.00;99.90;;;;;;4988089;28;20058;-68
2023/06/22 11:15:11;;;;;;;11.07;8.15;;;24.80;99.90;;;;;;4986004;28;20034;-68
2023/06/22 11:17:37;;;;;;;17.35;9.77;;;24.70;99.90;;;;;;4985655;28;20085;-68
2023/06/22 11:20:10;;;;;;;13.68;9.02;;;24.40;99.90;;;;;;4990810;28;20061;-68
2023/06/22 11:22:39;;;;;;;15.85;9.57;;;24.30;99.90;;;;;;4991367;28;20476;-67
2023/06/22 11:25:05;;;;;;;10.65;8.10;;;24.10;99.90;;;;;;4988987;28;20062;-67
2023/06/22 11:27:31;;;;;;;13.73;9.02;;;24.00;99.90;;;;;;4988579;28;20030;-68
2023/06/22 11:29:57;;;;;;;14.60;9.00;;;23.80;99.90;;;;;;4987318;28;20030;-67
2023/06/22 11:32:23;;;;;;;14.20;10.32;;;23.50;99.90;;;;;;4980103;28;20057;-68
2023/06/22 11:34:49;;;;;;;18.73;10.27;;;23.30;99.90;;;;;;4985805;28;20030;-67
2023/06/22 11:37:15;;;;;;;16.25;10.88;;;23.20;99.90;;;;;;4994261;28;20038;-68
2023/06/22 11:39:41;;;;;;;12.98;9.60;;;23.30;99.90;;;;;;4981446;28;20022;-68
2023/06/22 11:42:07;;;;;;;15.90;10.38;;;23.30;99.90;;;;;;4988253;28;20057;-68
2023/06/22 11:44:32;;;;;;;14.18;10.30;;;23.30;99.90;;;;;;4987250;28;20061;-68
2023/06/22 11:47:00;;;;;;;14.65;10.75;;;23.10;99.90;;;;;;4990455;28;20092;-68
2023/06/22 11:49:26;;;;;;;14.88;10.88;;;23.00;99.90;;;;;;4983902;28;20019;-68
2023/06/22 11:51:52;;;;;;;19.23;11.00;;;23.10;99.90;;;;;;4988481;28;20598;-68
2023/06/22 11:54:17;;;;;;;13.15;10.27;;;23.20;99.90;;;;;;4993305;28;20451;-66
2023/06/22 11:56:43;;;;;;;15.52;10.15;;;23.40;99.90;;;;;;4988616;28;20109;-68
2023/06/22 11:59:08;;;;;;;12.98;9.38;;;23.70;99.90;;;;;;4987654;28;20036;-68
2023/06/22 12:01:34;;;;;;;12.27;8.80;;;24.00;99.90;;;;;;4989973;28;20038;-68
2023/06/22 12:04:00;;;;;;;11.13;8.30;;;24.60;99.90;;;;;;4989537;28;20550;-68
2023/06/22 12:06:25;;;;;;;8.73;6.38;;;25.20;99.90;;;;;;4990582;28;20613;-68
2023/06/22 12:08:51;;;;;;;9.27;6.43;;;25.80;99.90;;;;;;4989213;28;20173;-68
2023/06/22 12:11:16;;;;;;;10.82;7.10;;;26.00;99.90;;;;;;4981958;28;20027;-68
2023/06/22 12:13:42;;;;;;;8.60;6.55;;;25.90;99.90;;;;;;4993597;28;20038;-68
2023/06/22 12:16:07;;;;;;;12.50;7.47;;;25.90;99.90;;;;;;4987867;28;20038;-68
2023/06/22 12:18:33;;;;;;;9.05;7.00;;;25.70;99.90;;;;;;4984939;28;20125;-68
2023/06/22 12:20:58;;;;;;;13.20;6.43;;;25.60;99.90;;;;;;4985574;28;20534;-68
2023/06/22 12:23:24;;;;;;;9.88;6.65;;;25.40;99.90;;;;;;4988571;28;20029;-68
2023/06/22 12:25:50;;;;;;;10.63;5.80;;;25.20;99.90;;;;;;4988907;28;20033;-68
2023/06/22 12:28:16;;;;;;;8.90;6.13;;;25.20;99.90;;;;;;4988408;28;20121;-66
2023/06/22 12:30:41;;;;;;;8.73;6.53;;;25.20;99.90;;;;;;4991127;28;20026;-68
2023/06/22 12:33:07;;;;;;;8.63;6.03;;;25.30;99.90;;;;;;4987661;28;20563;-68
2023/06/22 12:35:32;;;;;;;10.43;6.20;;;25.30;99.90;;;;;;4986380;28;20026;-68
2023/06/22 12:37:58;;;;;;;9.30;6.38;;;25.10;99.90;;;;;;4990914;28;20031;-68
2023/06/22 12:40:24;;;;;;;7.60;5.50;;;24.80;99.90;;;;;;4985164;28;20030;-68